Time;durP1;ratioP1;P1;durP2;ratioP2;P2;SDS_P1;SDS_P2;PMS_P1;PMS_P2;Temp;Humidity;BMP_temperature;BMP_pressure;BME280_temperature;BME280_humidity;BME280_pressure;Samples;Min_cycle;Max_cycle;Signal;HPM_P1;HPM_P2
2023/04/12 00:01:36;;;;;;;4.97;1.20;;;;;;;10.56;55.78;100879.31;5005209;28;98804;-71
2023/04/12 00:04:04;;;;;;;4.90;1.40;;;;;;;10.50;56.00;100882.13;5010400;28;97099;-71
2023/04/12 00:06:36;;;;;;;2.08;1.10;;;;;;;10.43;55.95;100872.72;5012656;28;96963;-72
2023/04/12 00:09:03;;;;;;;4.18;1.27;;;;;;;10.55;55.79;100877.59;5007179;28;101197;-71
2023/04/12 00:11:31;;;;;;;3.80;1.23;;;;;;;10.48;55.89;100878.72;5007490;28;98800;-71
2023/04/12 00:13:58;;;;;;;4.68;1.35;;;;;;;10.54;56.29;100875.84;5004375;28;97727;-71
2023/04/12 00:16:24;;;;;;;7.88;2.42;;;;;;;10.46;56.17;100880.53;5007404;28;96976;-72
2023/04/12 00:18:54;;;;;;;8.98;1.58;;;;;;;10.42;56.14;100880.69;5009420;28;98926;-70
2023/04/12 00:21:22;;;;;;;3.10;1.40;;;;;;;10.42;56.18;100872.75;5010719;28;102095;-71
2023/04/12 00:23:49;;;;;;;4.05;1.33;;;;;;;10.28;56.26;100865.28;5013096;28;97044;-70
2023/04/12 00:26:16;;;;;;;5.15;1.50;;;;;;;10.42;56.08;100860.41;5011433;28;96847;-70
2023/04/12 00:28:45;;;;;;;8.75;1.30;;;;;;;10.38;56.31;100870.19;5006025;28;99162;-70
2023/04/12 00:31:11;;;;;;;9.07;1.63;;;;;;;10.46;55.91;100872.59;5016871;28;98884;-70
2023/04/12 00:33:37;;;;;;;4.25;1.60;;;;;;;10.47;56.10;100868.19;5013231;28;97982;-70
2023/04/12 00:36:04;;;;;;;6.57;1.83;;;;;;;10.42;56.22;100867.47;5011391;27;96855;-71
2023/04/12 00:38:31;;;;;;;6.32;2.05;;;;;;;10.37;56.26;100865.00;5012238;28;98975;-71
2023/04/12 00:40:57;;;;;;;3.20;1.70;;;;;;;10.29;56.42;100862.59;5014554;28;99105;-72
2023/04/12 00:43:26;;;;;;;6.47;2.00;;;;;;;10.29;56.64;100864.38;5014520;28;97007;-71
2023/04/12 00:45:56;;;;;;;3.53;1.30;;;;;;;10.33;56.38;100863.34;5009844;28;97401;-70
2023/04/12 00:48:25;;;;;;;8.13;2.30;;;;;;;10.26;56.35;100869.75;5008098;28;99004;-71
2023/04/12 00:50:54;;;;;;;8.65;2.40;;;;;;;10.37;56.24;100867.63;5003510;28;98804;-71
2023/04/12 00:53:21;;;;;;;4.05;1.50;;;;;;;10.29;56.46;100874.94;5012616;28;96755;-71
2023/04/12 00:55:50;;;;;;;6.50;1.45;;;;;;;10.25;56.39;100857.44;5011231;28;96813;-71
2023/04/12 00:58:17;;;;;;;7.25;1.70;;;;;;;10.41;56.06;100863.97;5010370;28;101572;-70
2023/04/12 01:00:48;;;;;;;4.93;1.52;;;;;;;10.42;55.95;100863.06;5016343;28;97838;-70
2023/04/12 01:03:21;;;;;;;8.15;1.73;;;;;;;10.44;55.89;100855.94;5001276;28;96906;-70
2023/04/12 01:05:58;;;;;;;4.40;1.27;;;;;;;10.43;56.60;100850.72;4999915;28;97725;-72
2023/04/12 01:08:34;;;;;;;2.25;1.30;;;;;;;10.36;56.77;100855.34;5010293;28;101347;-71
2023/04/12 01:11:05;;;;;;;;;;;;;;;10.37;56.71;100847.34;5013290;28;99162;-70
2023/04/12 01:13:39;;;;;;;5.72;1.50;;;;;;;10.22;57.32;100847.00;5008979;28;97426;-71
2023/04/12 01:16:12;;;;;;;6.70;1.85;;;;;;;10.30;56.87;100844.97;4999786;28;99174;-71
2023/04/12 01:18:44;;;;;;;4.53;2.00;;;;;;;10.53;56.56;100842.41;5001372;28;97707;-71
2023/04/12 01:21:16;;;;;;;2.85;1.42;;;;;;;10.25;57.01;100839.81;5008959;28;96923;-70
2023/04/12 01:24:01;;;;;;;4.05;1.70;;;;;;;10.28;57.33;100834.47;5009782;28;97569;-72
2023/04/12 01:26:35;;;;;;;3.25;1.40;;;;;;;10.34;56.94;100830.75;5011639;28;97287;-70
2023/04/12 01:29:09;;;;;;;5.60;1.73;;;;;;;9.99;57.77;100827.44;5006871;28;98452;-71
2023/04/12 01:31:36;;;;;;;5.05;1.40;;;;;;;10.13;57.66;100832.28;5006514;28;98975;-70
2023/04/12 01:34:05;;;;;;;4.50;1.30;;;;;;;10.03;57.64;100835.25;5010174;28;97431;-70
2023/04/12 01:36:33;;;;;;;4.32;1.67;;;;;;;10.01;58.22;100827.38;5005498;28;97901;-70
2023/04/12 01:39:00;;;;;;;3.10;1.70;;;;;;;10.26;57.56;100822.19;5001739;28;99430;-70
2023/04/12 01:41:27;;;;;;;5.38;1.75;;;;;;;10.13;57.61;100827.00;5009852;28;101113;-70
2023/04/12 01:43:53;;;;;;;5.25;1.58;;;;;;;9.89;58.22;100826.00;5001323;28;97358;-71
2023/04/12 01:46:23;;;;;;;4.68;1.42;;;;;;;9.72;59.08;100819.50;5011344;28;97071;-70
2023/04/12 01:48:51;;;;;;;3.63;1.55;;;;;;;9.49;60.05;100825.50;5010614;27;98809;-70
2023/04/12 01:51:26;;;;;;;4.55;1.73;;;;;;;9.52;59.78;100828.00;5013451;28;98060;-71
2023/04/12 01:53:57;;;;;;;3.67;1.73;;;;;;;9.26;60.63;100827.91;5005307;28;98003;-71
2023/04/12 01:56:26;;;;;;;4.75;1.88;;;;;;;9.50;60.15;100824.59;5001440;28;97614;-70
2023/04/12 01:58:56;;;;;;;5.00;2.00;;;;;;;9.24;60.23;100827.13;5010863;28;98957;-70
2023/04/12 02:01:24;;;;;;;5.40;1.85;;;;;;;9.25;60.55;100818.31;5015616;28;98979;-70
2023/04/12 02:03:52;;;;;;;6.25;1.90;;;;;;;9.25;60.51;100815.66;5010731;28;97313;-70
2023/04/12 02:06:19;;;;;;;5.97;1.85;;;;;;;9.23;60.30;100822.75;5008583;28;96802;-69
2023/04/12 02:08:46;;;;;;;6.05;2.40;;;;;;;9.33;59.78;100817.16;5000902;28;98198;-71
2023/04/12 02:11:13;;;;;;;6.57;1.90;;;;;;;9.41;59.60;100816.94;5009043;28;99322;-70
2023/04/12 02:13:40;;;;;;;9.70;2.10;;;;;;;9.47;59.15;100808.84;5010058;28;96771;-72
2023/04/12 02:16:09;;;;;;;8.77;2.10;;;;;;;9.42;59.33;100806.34;5009239;28;96726;-71
2023/04/12 02:18:39;;;;;;;4.82;2.00;;;;;;;9.57;58.98;100799.75;5010107;28;98818;-71
2023/04/12 02:21:07;;;;;;;5.50;2.28;;;;;;;9.35;59.67;100811.84;5003833;28;98890;-70
2023/04/12 02:23:33;;;;;;;3.70;2.10;;;;;;;9.23;59.43;100801.66;5011550;28;96818;-71
2023/04/12 02:25:59;;;;;;;4.50;2.03;;;;;;;9.12;60.25;100788.78;5004951;28;97280;-71
2023/04/12 02:28:26;;;;;;;8.55;2.72;;;;;;;8.97;60.50;100797.13;5008514;28;99218;-70
2023/04/12 02:30:52;;;;;;;6.50;2.40;;;;;;;9.06;60.55;100794.22;5018952;28;98774;-70
2023/04/12 02:33:20;;;;;;;3.30;1.75;;;;;;;9.17;60.33;100790.38;5014636;28;96778;-71
2023/04/12 02:35:48;;;;;;;7.10;3.10;;;;;;;9.34;59.52;100791.66;5016277;28;96773;-70
2023/04/12 02:38:15;;;;;;;4.50;2.47;;;;;;;9.67;58.40;100784.47;5010638;28;98754;-69
2023/04/12 02:40:41;;;;;;;2.83;2.20;;;;;;;9.63;58.73;100785.50;5004982;28;99083;-70
2023/04/12 02:43:08;;;;;;;6.32;2.40;;;;;;;9.41;59.21;100777.38;5008861;28;97340;-70
2023/04/12 02:45:35;;;;;;;8.60;2.38;;;;;;;9.42;58.81;100773.81;5004392;28;96945;-70
2023/04/12 02:48:01;;;;;;;7.68;2.55;;;;;;;9.27;59.19;100769.00;5009128;28;98941;-71
2023/04/12 02:50:28;;;;;;;5.68;2.40;;;;;;;9.10;59.44;100761.59;5019387;28;99035;-70
2023/04/12 02:52:56;;;;;;;6.63;2.83;;;;;;;9.25;59.38;100768.22;5009201;28;98986;-70
2023/04/12 02:55:24;;;;;;;7.70;2.70;;;;;;;9.26;59.02;100768.13;5012686;28;98028;-71
2023/04/12 02:57:51;;;;;;;4.80;2.95;;;;;;;9.07;59.72;100766.94;5006470;28;103566;-70
2023/04/12 03:00:17;;;;;;;5.63;2.60;;;;;;;8.84;60.10;100766.75;5018182;27;99005;-71
2023/04/12 03:02:44;;;;;;;6.63;2.60;;;;;;;8.92;59.90;100760.38;5004163;28;97871;-70
2023/04/12 03:05:11;;;;;;;7.38;2.70;;;;;;;9.27;59.10;100755.81;5005207;28;98576;-69
2023/04/12 03:07:37;;;;;;;5.97;3.25;;;;;;;9.22;58.90;100744.56;5004421;28;98967;-69
2023/04/12 03:10:07;;;;;;;4.93;2.58;;;;;;;9.12;58.66;100744.81;5005757;28;101677;-71
2023/04/12 03:12:33;;;;;;;7.38;2.53;;;;;;;9.24;58.92;100732.19;5006843;28;97314;-70
2023/04/12 03:15:00;;;;;;;5.18;2.92;;;;;;;9.27;58.55;100734.72;5009563;28;97229;-70
2023/04/12 03:17:26;;;;;;;3.85;2.75;;;;;;;9.05;59.09;100734.53;5005508;28;98862;-70
2023/04/12 03:19:52;;;;;;;10.32;3.20;;;;;;;8.80;59.58;100742.25;5005949;28;101894;-70
2023/04/12 03:22:19;;;;;;;7.88;3.22;;;;;;;8.90;59.20;100733.19;5008176;28;98970;-70
2023/04/12 03:24:45;;;;;;;7.68;2.38;;;;;;;8.91;59.60;100734.06;5010174;28;96868;-71
2023/04/12 03:27:13;;;;;;;5.68;3.45;;;;;;;8.99;59.40;100732.91;5000523;28;99277;-73
2023/04/12 03:29:41;;;;;;;8.73;2.80;;;;;;;9.03;59.19;100726.66;5005782;28;100873;-72
2023/04/12 03:32:07;;;;;;;6.80;2.53;;;;;;;9.12;58.53;100729.00;5012209;28;97168;-72
2023/04/12 03:34:34;;;;;;;7.40;2.53;;;;;;;9.07;58.67;100728.28;5004503;28;97633;-72
2023/04/12 03:37:01;;;;;;;7.65;2.58;;;;;;;8.91;59.15;100728.78;4998741;28;98912;-73
2023/04/12 03:39:28;;;;;;;6.63;2.60;;;;;;;8.68;59.86;100725.03;5006696;28;99011;-72
2023/04/12 03:41:54;;;;;;;6.25;2.70;;;;;;;8.43;60.65;100718.72;5008246;28;96846;-72
2023/04/12 03:44:24;;;;;;;7.32;2.58;;;;;;;8.85;59.46;100707.88;5012991;28;97703;-72
2023/04/12 03:46:51;;;;;;;6.85;2.78;;;;;;;8.91;59.05;100705.94;5001558;28;98466;-71
2023/04/12 03:49:18;;;;;;;7.00;3.05;;;;;;;9.04;58.84;100693.25;5012403;28;99136;-73
2023/04/12 03:51:44;;;;;;;7.90;2.72;;;;;;;8.97;58.84;100686.44;5006590;28;96785;-69
2023/04/12 03:54:11;;;;;;;6.38;3.25;;;;;;;9.12;58.38;100678.91;5012241;28;96841;-70
2023/04/12 03:56:38;;;;;;;6.75;2.70;;;;;;;9.33;57.90;100680.03;5006824;28;97670;-71
2023/04/12 03:59:06;;;;;;;14.45;3.50;;;;;;;9.29;57.59;100674.91;5003921;28;100860;-70
2023/04/12 04:01:34;;;;;;;8.45;3.05;;;;;;;9.28;57.75;100678.44;5006369;28;97348;-71
2023/04/12 04:04:01;;;;;;;8.10;2.90;;;;;;;9.05;58.34;100674.75;5009145;28;97774;-71
2023/04/12 04:06:28;;;;;;;8.75;2.85;;;;;;;8.79;59.25;100674.69;5001919;28;100275;-69
2023/04/12 04:08:55;;;;;;;8.18;3.05;;;;;;;8.80;59.63;100676.38;5003507;28;100539;-71
2023/04/12 04:11:22;;;;;;;5.22;2.88;;;;;;;8.75;59.77;100665.97;5004327;28;96899;-70
2023/04/12 04:13:48;;;;;;;5.00;2.67;;;;;;;8.90;59.26;100669.06;5000746;28;97026;-70
2023/04/12 04:16:14;;;;;;;8.23;3.00;;;;;;;8.71;59.78;100674.03;5004124;28;99336;-71
2023/04/12 04:18:42;;;;;;;6.85;2.75;;;;;;;8.54;60.09;100668.34;5006075;28;98970;-70
2023/04/12 04:21:08;;;;;;;6.88;3.25;;;;;;;8.85;59.16;100666.59;5005143;28;97296;-70
2023/04/12 04:23:37;;;;;;;10.73;3.00;;;;;;;8.82;58.78;100661.41;5009390;28;97016;-70
2023/04/12 04:26:05;;;;;;;3.80;2.58;;;;;;;8.82;58.79;100671.94;5019075;28;99413;-71
2023/04/12 04:28:32;;;;;;;6.85;2.90;;;;;;;8.74;58.84;100676.56;5007001;28;102185;-70
2023/04/12 04:31:02;;;;;;;8.75;3.00;;;;;;;8.73;59.03;100678.31;5013809;28;97687;-70
2023/04/12 04:33:29;;;;;;;8.77;3.38;;;;;;;8.79;58.86;100672.88;5008713;28;97554;-72
2023/04/12 04:35:57;;;;;;;10.40;3.40;;;;;;;8.94;58.48;100671.56;5002077;28;98833;-71
2023/04/12 04:38:25;;;;;;;5.72;2.70;;;;;;;9.05;58.23;100669.50;5009353;28;99647;-70
2023/04/12 04:40:53;;;;;;;6.35;3.22;;;;;;;9.00;58.16;100663.47;5013875;28;97097;-71
2023/04/12 04:43:19;;;;;;;7.20;2.80;;;;;;;8.98;57.99;100661.81;5006403;28;98481;-72
2023/04/12 04:45:48;;;;;;;6.72;3.42;;;;;;;8.93;58.44;100661.94;5012139;28;100695;-71
2023/04/12 04:48:15;;;;;;;6.65;3.15;;;;;;;9.00;57.72;100659.97;5003258;28;100860;-70
2023/04/12 04:50:42;;;;;;;11.57;3.83;;;;;;;8.86;58.13;100663.03;5013735;28;96722;-71
2023/04/12 04:53:10;;;;;;;8.77;3.22;;;;;;;9.06;57.43;100655.38;5009945;28;97297;-70
2023/04/12 04:55:37;;;;;;;7.13;3.83;;;;;;;9.07;57.76;100651.84;5005984;28;97593;-70
2023/04/12 04:58:03;;;;;;;8.35;3.33;;;;;;;8.91;58.40;100653.22;5006867;28;99515;-72
2023/04/12 05:00:29;;;;;;;10.85;3.40;;;;;;;9.17;57.70;100648.03;5010620;28;97003;-71
2023/04/12 05:02:56;;;;;;;8.65;3.20;;;;;;;9.36;57.19;100652.72;5009830;28;99058;-71
2023/04/12 05:05:22;;;;;;;7.10;3.15;;;;;;;9.36;57.28;100647.44;5010026;28;99288;-71
2023/04/12 05:07:49;;;;;;;7.28;3.33;;;;;;;9.05;57.57;100643.13;4998071;28;99137;-71
2023/04/12 05:10:17;;;;;;;12.75;3.58;;;;;;;9.40;57.11;100649.91;5009166;28;98099;-73
2023/04/12 05:12:43;;;;;;;9.35;3.83;;;;;;;9.53;56.61;100648.59;5000663;28;99193;-71
2023/04/12 05:15:10;;;;;;;8.07;3.47;;;;;;;9.67;56.12;100647.28;5007372;28;99366;-71
2023/04/12 05:17:37;;;;;;;9.63;3.80;;;;;;;9.53;55.90;100645.09;5010995;28;98841;-72
2023/04/12 05:20:06;;;;;;;5.60;3.53;;;;;;;9.69;55.24;100642.84;5010416;28;96754;-71
2023/04/12 05:22:33;;;;;;;8.77;3.70;;;;;;;9.83;54.32;100638.81;5002791;28;99302;-71
2023/04/12 05:25:01;;;;;;;11.02;3.88;;;;;;;9.77;54.71;100641.66;5004916;28;99265;-71
2023/04/12 05:27:29;;;;;;;8.43;3.90;;;;;;;9.63;54.82;100646.53;5006481;28;99088;-71
2023/04/12 05:29:56;;;;;;;8.85;3.47;;;;;;;9.89;54.89;100643.88;5007907;28;96924;-70
2023/04/12 05:32:24;;;;;;;7.70;3.67;;;;;;;9.92;54.45;100637.63;5004341;28;97625;-72
2023/04/12 05:34:51;;;;;;;6.78;3.42;;;;;;;10.21;53.88;100626.94;5008776;28;98855;-72
2023/04/12 05:37:17;;;;;;;9.80;4.43;;;;;;;10.25;53.91;100625.03;5003641;28;98797;-71
2023/04/12 05:39:44;;;;;;;7.35;3.40;;;;;;;10.43;53.72;100629.69;5003774;28;97077;-70
2023/04/12 05:42:10;;;;;;;7.65;3.58;;;;;;;10.32;53.33;100621.28;5003167;28;98840;-71
2023/04/12 05:44:39;;;;;;;7.97;3.83;;;;;;;10.38;53.35;100610.47;5000951;28;97705;-70
2023/04/12 05:47:05;;;;;;;7.53;3.80;;;;;;;10.69;52.41;100611.09;4995075;28;99185;-70
2023/04/12 05:49:32;;;;;;;7.13;4.22;;;;;;;10.76;51.80;100601.13;5000039;28;96996;-71
2023/04/12 05:51:58;;;;;;;10.10;3.58;;;;;;;10.67;51.88;100597.06;5011874;28;96783;-71
2023/04/12 05:54:25;;;;;;;9.77;3.92;;;;;;;10.95;51.57;100601.28;5003792;28;99911;-71
2023/04/12 05:56:51;;;;;;;10.93;3.92;;;;;;;11.29;50.89;100593.69;5002253;28;99103;-70
2023/04/12 05:59:18;;;;;;;7.90;3.80;;;;;;;11.13;50.98;100593.47;5003132;28;96851;-71
2023/04/12 06:01:46;;;;;;;15.15;4.25;;;;;;;11.31;50.66;100583.91;5004756;28;96873;-70
2023/04/12 06:04:13;;;;;;;15.00;4.00;;;;;;;11.24;50.48;100582.44;5001948;28;98921;-71
2023/04/12 06:06:40;;;;;;;8.80;3.60;;;;;;;11.17;50.78;100586.25;5000372;28;101102;-70
2023/04/12 06:09:06;;;;;;;6.05;3.75;;;;;;;11.30;50.16;100568.97;5004026;28;97556;-71
2023/04/12 06:11:33;;;;;;;8.65;3.85;;;;;;;11.16;50.07;100566.03;5004082;28;97984;-71
2023/04/12 06:13:59;;;;;;;9.15;3.58;;;;;;;11.49;49.97;100567.28;5007171;28;99028;-70
2023/04/12 06:16:26;;;;;;;6.40;3.03;;;;;;;11.59;49.07;100563.34;5008372;28;98509;-72
2023/04/12 06:18:54;;;;;;;12.70;3.78;;;;;;;11.49;49.05;100555.84;5004194;28;97344;-71
2023/04/12 06:21:35;;;;;;;6.93;3.50;;;;;;;11.57;49.27;100559.03;5005365;28;98216;-72
2023/04/12 06:24:02;;;;;;;5.38;3.20;;;;;;;11.82;48.39;100553.56;5006548;28;97946;-72
2023/04/12 06:26:28;;;;;;;9.77;3.13;;;;;;;11.90;47.72;100547.00;5007494;28;99752;-70
2023/04/12 06:28:55;;;;;;;9.63;3.60;;;;;;;11.77;47.86;100540.53;5005891;28;96856;-71
2023/04/12 06:31:21;;;;;;;9.32;3.45;;;;;;;12.07;47.55;100546.28;5008808;28;99109;-72
2023/04/12 06:33:49;;;;;;;9.75;3.03;;;;;;;12.14;47.42;100534.44;5000893;28;98395;-71
2023/04/12 06:36:17;;;;;;;9.15;3.22;;;;;;;12.13;47.87;100532.75;4997879;28;99261;-70
2023/04/12 06:38:43;;;;;;;7.00;2.90;;;;;;;12.46;47.00;100529.50;4993954;28;98367;-71
2023/04/12 06:41:10;;;;;;;7.93;2.92;;;;;;;12.58;46.07;100526.25;4997913;28;97179;-72
2023/04/12 06:43:36;;;;;;;6.05;2.78;;;;;;;12.50;46.51;100523.09;4997980;28;101333;-72
2023/04/12 06:46:03;;;;;;;7.20;2.38;;;;;;;12.56;45.80;100530.78;5000478;28;97658;-71
2023/04/12 06:48:30;;;;;;;4.88;2.63;;;;;;;12.55;46.14;100519.31;4994466;28;99059;-70
2023/04/12 06:50:56;;;;;;;9.18;3.10;;;;;;;12.68;45.65;100517.78;4997847;28;97796;-72
2023/04/12 06:53:24;;;;;;;9.32;2.90;;;;;;;12.68;45.82;100516.94;4995462;28;99151;-71
2023/04/12 06:55:52;;;;;;;8.45;2.78;;;;;;;12.78;45.75;100511.13;4995675;28;98236;-71
2023/04/12 06:58:20;;;;;;;9.55;2.80;;;;;;;13.16;45.07;100513.72;4995844;28;97881;-70
2023/04/12 07:00:46;;;;;;;5.88;2.47;;;;;;;13.33;44.65;100511.06;4997735;28;97007;-71
2023/04/12 07:03:13;;;;;;;16.10;3.58;;;;;;;13.54;44.20;100504.69;4997305;28;99985;-72
2023/04/12 07:05:40;;;;;;;4.32;2.10;;;;;;;13.60;43.94;100505.28;5000169;28;100010;-72
2023/04/12 07:08:07;;;;;;;7.00;2.35;;;;;;;13.58;43.90;100492.13;4998463;28;97275;-71
2023/04/12 07:10:35;;;;;;;6.72;2.30;;;;;;;13.77;43.51;100484.06;4998196;28;96952;-72
2023/04/12 07:13:05;;;;;;;10.40;2.40;;;;;;;13.95;42.60;100488.38;4998563;28;98967;-70
2023/04/12 07:15:32;;;;;;;9.32;2.53;;;;;;;14.22;41.93;100494.00;4994678;28;99227;-72
2023/04/12 07:17:58;;;;;;;5.38;2.65;;;;;;;14.24;41.79;100489.47;4995292;28;98549;-72
2023/04/12 07:20:25;;;;;;;6.25;2.05;;;;;;;14.39;41.93;100486.00;4999966;28;97219;-72
2023/04/12 07:22:51;;;;;;;5.82;2.47;;;;;;;14.45;41.89;100480.34;4998783;28;99283;-71
2023/04/12 07:25:18;;;;;;;6.85;2.35;;;;;;;14.52;41.71;100486.16;4998497;28;99255;-73
2023/04/12 07:27:46;;;;;;;6.35;2.50;;;;;;;14.64;41.10;100481.03;4997457;28;97726;-72
2023/04/12 07:30:13;;;;;;;5.10;1.95;;;;;;;14.87;40.52;100481.53;4997299;27;98548;-72
2023/04/12 07:32:39;;;;;;;6.88;2.38;;;;;;;14.99;39.55;100470.19;4994019;28;99558;-72
2023/04/12 07:35:07;;;;;;;10.73;2.22;;;;;;;15.01;39.64;100468.28;4996195;28;98883;-72
2023/04/12 07:37:33;;;;;;;9.93;2.22;;;;;;;14.72;39.91;100468.16;4992439;28;97789;-72
2023/04/12 07:40:00;;;;;;;6.55;2.30;;;;;;;14.51;40.05;100456.06;4995665;28;101384;-71
2023/04/12 07:42:27;;;;;;;7.82;2.17;;;;;;;14.72;40.39;100457.50;4992632;28;101675;-74
2023/04/12 07:44:55;;;;;;;3.42;2.05;;;;;;;15.01;39.62;100455.84;4996349;28;99182;-73
2023/04/12 07:47:21;;;;;;;9.93;2.40;;;;;;;15.25;39.27;100456.19;5002194;28;98430;-71
2023/04/12 07:49:48;;;;;;;8.07;2.00;;;;;;;15.58;38.31;100448.03;5001606;28;97349;-73
2023/04/12 07:52:15;;;;;;;8.82;2.05;;;;;;;15.84;37.91;100438.44;5000692;28;97736;-73
2023/04/12 07:54:42;;;;;;;8.32;2.08;;;;;;;15.80;37.60;100442.25;4999616;28;101840;-71
2023/04/12 07:57:08;;;;;;;4.43;1.65;;;;;;;15.44;37.36;100430.19;5000310;28;97464;-72
2023/04/12 07:59:35;;;;;;;7.10;1.58;;;;;;;15.33;37.75;100426.47;5008237;28;97915;-72
2023/04/12 08:02:04;;;;;;;8.55;2.50;;;;;;;15.49;37.81;100417.44;5000058;28;99718;-73
2023/04/12 08:04:31;;;;;;;5.20;1.77;;;;;;;15.31;37.45;100423.88;5008560;28;99322;-72
2023/04/12 08:06:57;;;;;;;10.23;2.10;;;;;;;15.41;37.75;100421.53;5006002;28;97422;-71
2023/04/12 08:09:24;;;;;;;7.95;1.70;;;;;;;15.53;37.75;100413.69;5010092;28;96925;-72
2023/04/12 08:11:51;;;;;;;6.43;1.65;;;;;;;15.81;37.91;100410.19;5003427;28;97650;-72
2023/04/12 08:14:17;;;;;;;7.38;1.88;;;;;;;16.02;36.76;100413.28;5009703;28;98879;-72
2023/04/12 08:16:44;;;;;;;4.20;1.30;;;;;;;15.97;36.52;100409.22;5000319;28;96972;-73
2023/04/12 08:19:12;;;;;;;4.68;1.25;;;;;;;16.04;36.68;100400.75;5001391;28;98658;-72
2023/04/12 08:21:38;;;;;;;5.88;1.70;;;;;;;16.02;35.99;100404.44;5006657;28;99327;-73
2023/04/12 08:24:05;;;;;;;3.38;0.70;;;;;;;15.49;36.03;100400.63;4999583;28;101198;-71
2023/04/12 08:26:32;;;;;;;5.05;1.35;;;;;;;15.42;35.67;100389.50;4996931;28;97016;-72
2023/04/12 08:28:58;;;;;;;4.15;1.20;;;;;;;15.60;35.51;100386.69;5003654;28;97760;-72
2023/04/12 08:31:24;;;;;;;3.08;1.27;;;;;;;15.53;35.59;100380.88;4998240;28;99008;-71
2023/04/12 08:33:51;;;;;;;5.75;1.20;;;;;;;15.86;35.45;100384.13;5007318;28;100220;-72
2023/04/12 08:36:18;;;;;;;3.30;1.08;;;;;;;16.23;33.64;100387.94;5002683;28;97540;-73
2023/04/12 08:38:45;;;;;;;8.82;1.15;;;;;;;16.40;33.96;100378.88;4996204;28;97588;-72
2023/04/12 08:41:11;;;;;;;4.53;0.90;;;;;;;16.47;33.22;100374.00;5004574;28;100614;-72
2023/04/12 08:43:43;;;;;;;5.32;1.08;;;;;;;16.63;33.06;100364.03;5001990;28;97808;-72
2023/04/12 08:46:12;;;;;;;4.70;1.08;;;;;;;16.65;32.62;100365.66;5007605;28;96866;-72
2023/04/12 08:48:41;;;;;;;5.40;1.48;;;;;;;16.71;32.06;100356.38;4996175;28;97415;-72
2023/04/12 08:51:09;;;;;;;4.78;1.00;;;;;;;16.48;32.82;100352.53;5003496;28;99106;-72
2023/04/12 08:53:38;;;;;;;4.03;0.98;;;;;;;16.70;32.70;100350.19;5009426;28;98882;-72
2023/04/12 08:56:07;;;;;;;5.40;1.00;;;;;;;16.57;31.38;100351.94;5003304;28;96910;-71
2023/04/12 08:58:33;;;;;;;5.88;0.95;;;;;;;16.42;31.21;100354.75;5002556;28;97025;-72
2023/04/12 09:01:00;;;;;;;4.45;0.80;;;;;;;16.48;30.80;100347.19;5003860;28;99715;-72
2023/04/12 09:03:28;;;;;;;7.70;0.93;;;;;;;16.74;31.86;100343.69;5009887;28;98355;-72
2023/04/12 09:05:55;;;;;;;3.45;0.85;;;;;;;16.77;30.55;100328.44;4996881;28;98794;-72
2023/04/12 09:08:21;;;;;;;10.13;1.20;;;;;;;16.73;30.38;100334.00;4994198;28;98707;-72
2023/04/12 09:10:49;;;;;;;3.38;0.85;;;;;;;16.82;30.73;100336.97;5006832;28;99539;-71
2023/04/12 09:13:16;;;;;;;6.53;0.98;;;;;;;16.70;30.96;100328.84;5002269;28;98308;-72
2023/04/12 09:15:48;;;;;;;5.55;1.65;;;;;;;16.43;31.01;100324.47;5000710;28;97392;-71
2023/04/12 09:18:15;;;;;;;7.03;1.77;;;;;;;16.42;31.17;100318.28;4999544;28;97514;-71
2023/04/12 09:20:41;;;;;;;3.95;1.02;;;;;;;16.51;31.51;100314.16;4998948;28;98297;-72
2023/04/12 09:23:18;;;;;;;1.70;0.82;;;;;;;16.84;30.51;100308.38;5002859;28;99621;-72
2023/04/12 09:25:47;;;;;;;6.32;1.02;;;;;;;16.85;30.76;100310.97;5002400;28;97183;-72
2023/04/12 09:28:26;;;;;;;3.47;0.85;;;;;;;17.11;30.57;100312.69;4999829;28;96791;-73
2023/04/12 09:30:53;;;;;;;7.78;0.95;;;;;;;17.23;30.44;100302.09;5007375;28;99688;-72
2023/04/12 09:33:21;;;;;;;7.55;0.90;;;;;;;17.26;30.70;100299.25;5002688;28;99272;-72
2023/04/12 09:35:48;;;;;;;2.90;1.10;;;;;;;17.03;30.16;100291.00;5007451;28;97365;-71
2023/04/12 09:38:15;;;;;;;4.35;1.30;;;;;;;16.82;30.53;100280.94;5003984;28;96799;-72
2023/04/12 09:40:41;;;;;;;4.60;1.17;;;;;;;16.83;30.49;100280.00;5007331;28;99032;-71
2023/04/12 09:43:08;;;;;;;6.97;1.52;;;;;;;16.54;30.37;100281.94;5006743;28;98928;-71
2023/04/12 09:45:38;;;;;;;7.10;1.40;;;;;;;16.84;30.34;100266.53;5006723;28;97872;-72
2023/04/12 09:48:06;;;;;;;5.18;1.52;;;;;;;16.99;30.14;100270.84;5006043;28;97075;-72
2023/04/12 09:50:33;;;;;;;4.18;1.42;;;;;;;17.17;29.28;100258.00;5006567;28;99518;-71
2023/04/12 09:53:01;;;;;;;6.85;1.75;;;;;;;16.94;29.60;100261.41;5001752;28;99207;-72
2023/04/12 09:55:30;;;;;;;1.77;1.10;;;;;;;17.29;28.90;100250.94;5006984;28;97218;-71
2023/04/12 09:58:00;;;;;;;3.83;0.90;;;;;;;16.95;29.08;100239.09;5005010;28;96885;-72
2023/04/12 10:00:28;;;;;;;4.60;1.30;;;;;;;16.81;29.21;100244.53;5008152;28;99152;-71
2023/04/12 10:02:56;;;;;;;3.97;1.23;;;;;;;16.85;29.90;100238.91;5002582;28;101430;-71
2023/04/12 10:05:24;;;;;;;5.53;1.20;;;;;;;17.00;29.57;100231.66;5005786;28;97681;-72
2023/04/12 10:07:51;;;;;;;2.50;1.00;;;;;;;17.26;28.85;100225.34;5005967;28;97040;-71
2023/04/12 10:10:19;;;;;;;5.57;1.50;;;;;;;17.64;28.63;100211.91;5004808;28;99336;-74
2023/04/12 10:12:48;;;;;;;6.20;1.23;;;;;;;17.82;27.79;100201.69;5007838;28;98789;-71
2023/04/12 10:15:16;;;;;;;14.88;1.85;;;;;;;17.96;27.45;100212.19;4999922;28;99047;-71
2023/04/12 10:17:45;;;;;;;6.32;1.30;;;;;;;17.59;27.71;100191.81;5004887;28;97652;-73
2023/04/12 10:20:14;;;;;;;9.35;1.23;;;;;;;17.75;27.86;100190.59;5004982;28;98906;-72
2023/04/12 10:22:41;;;;;;;5.28;1.23;;;;;;;17.70;27.75;100192.75;5003103;28;98887;-71
2023/04/12 10:25:12;;;;;;;2.88;1.10;;;;;;;17.37;28.20;100182.69;5003073;28;97193;-71
2023/04/12 10:27:41;;;;;;;5.70;0.93;;;;;;;17.17;27.84;100185.06;5005492;28;97366;-73
2023/04/12 10:30:24;;;;;;;6.15;1.10;;;;;;;16.79;27.81;100171.78;5003816;28;99562;-70
2023/04/12 10:33:16;;;;;;;5.68;1.17;;;;;;;16.76;28.16;100167.50;5006847;28;99139;-72
2023/04/12 10:35:55;;;;;;;3.70;1.20;;;;;;;17.22;28.12;100149.06;4995180;28;97576;-71
2023/04/12 10:38:25;;;;;;;4.85;1.30;;;;;;;16.99;28.29;100158.75;5004855;28;96831;-71
2023/04/12 10:41:18;;;;;;;7.40;1.30;;;;;;;17.41;28.43;100149.44;5004012;28;98940;-72
2023/04/12 10:43:45;;;;;;;4.47;1.02;;;;;;;17.62;28.25;100155.06;5001239;28;99208;-73
2023/04/12 10:46:49;;;;;;;6.68;1.40;;;;;;;17.13;28.03;100145.22;5003508;28;98248;-72
2023/04/12 10:49:16;;;;;;;5.30;1.05;;;;;;;16.89;28.70;100147.00;5001357;28;97209;-71
2023/04/12 10:52:12;;;;;;;7.32;1.15;;;;;;;17.20;28.54;100132.28;5001699;28;98945;-71
2023/04/12 10:54:39;;;;;;;6.47;1.20;;;;;;;17.57;27.59;100124.28;5000563;28;99020;-72
2023/04/12 10:57:06;;;;;;;4.55;1.17;;;;;;;17.38;27.44;100117.63;5007214;28;98353;-73
2023/04/12 10:59:51;;;;;;;7.90;1.20;;;;;;;17.33;28.15;100122.44;5002063;28;97428;-71
2023/04/12 11:02:17;;;;;;;8.13;1.42;;;;;;;17.33;28.26;100122.44;5003550;28;100960;-73
2023/04/12 11:05:07;;;;;;;5.28;1.27;;;;;;;17.60;28.42;100100.84;5005049;28;99117;-72
2023/04/12 11:07:45;;;;;;;4.15;1.30;;;;;;;17.82;27.83;100110.81;5002135;28;97240;-73
2023/04/12 11:10:16;;;;;;;7.18;1.23;;;;;;;17.53;27.76;100104.94;4998785;28;97310;-72
2023/04/12 11:12:48;;;;;;;5.53;1.40;;;;;;;17.37;28.35;100094.56;5000939;28;98557;-71
2023/04/12 11:15:15;;;;;;;5.50;1.33;;;;;;;17.34;28.17;100099.25;4999961;28;100426;-72
2023/04/12 11:17:42;;;;;;;6.35;1.35;;;;;;;17.44;28.77;100077.09;4992994;28;98047;-72
2023/04/12 11:20:11;;;;;;;6.18;1.50;;;;;;;17.73;28.07;100072.28;5001049;28;97585;-71
2023/04/12 11:22:38;;;;;;;10.73;1.30;;;;;;;17.96;27.71;100075.88;5004436;28;99184;-72
2023/04/12 11:25:07;;;;;;;3.58;1.10;;;;;;;17.96;28.21;100064.34;4999416;28;99240;-73
2023/04/12 11:27:33;;;;;;;11.15;1.20;;;;;;;17.77;27.90;100071.09;5005187;28;98865;-72
2023/04/12 11:30:00;;;;;;;3.30;1.17;;;;;;;17.84;27.98;100066.97;5004195;28;97252;-74
2023/04/12 11:32:29;;;;;;;5.45;1.08;;;;;;;17.70;28.28;100066.31;5003984;28;98952;-72